createdAt,value
2022-09-06T00:00:06.184Z,52.685546875
2022-09-06T00:01:06.149Z,52.9248046875
2022-09-06T00:02:06.209Z,53.361328125
2022-09-06T00:03:06.175Z,53.390625
2022-09-06T00:04:06.506Z,53.3251953125
2022-09-06T00:05:09.151Z,53.3583984375
2022-09-06T00:06:06.148Z,53.603515625
2022-09-06T00:07:06.044Z,53.796875
2022-09-06T00:08:06.177Z,53.9072265625
2022-09-06T00:09:06.464Z,54.0419921875
2022-09-06T00:10:06.168Z,54.1337890625
2022-09-06T00:11:06.161Z,54.2900390625
2022-09-06T00:12:06.173Z,54.5478515625
2022-09-06T00:13:07.330Z,54.580078125
2022-09-06T00:14:06.421Z,54.7607421875
2022-09-06T00:15:06.210Z,54.90625
2022-09-06T00:16:09.220Z,54.642578125
2022-09-06T00:17:06.224Z,54.7314453125
2022-09-06T00:18:06.160Z,54.662109375
2022-09-06T00:19:06.631Z,54.8701171875
2022-09-06T00:20:06.167Z,55.0205078125
2022-09-06T00:21:06.161Z,54.8818359375
2022-09-06T00:22:06.127Z,54.8115234375
2022-09-06T00:23:06.197Z,54.56640625
2022-09-06T00:24:06.477Z,54.65625
2022-09-06T00:25:06.107Z,55.3349609375
2022-09-06T00:26:06.200Z,54.9833984375
2022-09-06T00:27:09.202Z,55.13671875
2022-09-06T00:28:06.265Z,54.708984375
2022-09-06T00:29:06.483Z,54.537109375
2022-09-06T00:30:06.265Z,54.8486328125
2022-09-06T00:31:06.203Z,54.7373046875
2022-09-06T00:32:06.179Z,54.734375
2022-09-06T00:33:06.154Z,54.9501953125
2022-09-06T00:34:06.487Z,55.021484375
2022-09-06T00:35:06.168Z,54.783203125
2022-09-06T00:36:06.194Z,54.9326171875
2022-09-06T00:37:06.229Z,54.78125
2022-09-06T00:38:11.743Z,54.8037109375
2022-09-06T00:39:06.404Z,54.953125
2022-09-06T00:40:06.321Z,54.986328125
2022-09-06T00:41:06.221Z,55.2451171875
2022-09-06T00:42:06.078Z,55.611328125
2022-09-06T00:43:06.179Z,55.861328125
2022-09-06T00:44:06.407Z,56.15625
2022-09-06T00:45:06.061Z,56.2919921875
2022-09-06T00:46:06.191Z,56.41796875
2022-09-06T00:47:06.170Z,56.3671875
2022-09-06T00:48:06.148Z,56.4619140625
2022-09-06T00:49:12.064Z,56.61328125
2022-09-06T00:50:06.272Z,56.5810546875
2022-09-06T00:51:06.160Z,56.939453125
2022-09-06T00:52:06.068Z,56.1259765625
2022-09-06T00:53:06.191Z,56.080078125
2022-09-06T00:54:06.411Z,55.6962890625
2022-09-06T00:55:06.162Z,55.81640625
2022-09-06T00:56:06.153Z,56.11328125
2022-09-06T00:57:06.190Z,56.1337890625
2022-09-06T00:58:06.271Z,56.3974609375
2022-09-06T00:59:06.409Z,56.443359375
2022-09-06T01:00:09.205Z,56.568359375
2022-09-06T01:01:06.268Z,56.7578125
2022-09-06T01:02:06.279Z,56.4111328125
2022-09-06T01:03:06.258Z,55.9404296875
2022-09-06T01:04:06.410Z,56.1123046875
2022-09-06T01:05:06.250Z,56.623046875
2022-09-06T01:06:06.170Z,56.3388671875
2022-09-06T01:07:06.167Z,55.333984375
2022-09-06T01:08:06.269Z,55.2900390625
2022-09-06T01:09:06.412Z,55.1298828125
2022-09-06T01:10:06.245Z,54.7041015625
2022-09-06T01:11:09.145Z,54.830078125
2022-09-06T01:12:06.271Z,54.3828125
2022-09-06T01:13:06.218Z,54.58984375
2022-09-06T01:14:06.416Z,54.4404296875
2022-09-06T01:15:06.172Z,53.369140625
2022-09-06T01:16:06.198Z,53.0146484375
2022-09-06T01:17:06.067Z,52.59375
2022-09-06T01:18:06.182Z,52.1259765625
2022-09-06T01:19:06.457Z,52.2333984375
2022-09-06T01:20:06.215Z,52.3837890625
2022-09-06T01:21:06.102Z,51.8310546875
2022-09-06T01:22:09.173Z,52.2119140625
2022-09-06T01:23:06.229Z,51.9599609375
2022-09-06T01:24:06.490Z,52.0517578125
2022-09-06T01:25:06.266Z,52.1201171875
2022-09-06T01:26:06.245Z,52.041015625
2022-09-06T01:27:06.164Z,52.0625
2022-09-06T01:28:06.192Z,52.1748046875
2022-09-06T01:29:06.407Z,52.3427734375
2022-09-06T01:30:06.080Z,52.37890625
2022-09-06T01:31:06.120Z,52.33984375
2022-09-06T01:32:06.173Z,52.3369140625
2022-09-06T01:33:09.222Z,52.625
2022-09-06T01:34:06.414Z,52.4892578125
2022-09-06T01:35:06.245Z,51.6875
2022-09-06T01:36:06.254Z,52.271484375
2022-09-06T01:37:10.290Z,52.2919921875
2022-09-06T01:38:06.170Z,52.2802734375
2022-09-06T01:39:06.412Z,52.5888671875
2022-09-06T01:40:06.130Z,52.1982421875
2022-09-06T01:41:06.172Z,52.8076171875
2022-09-06T01:42:06.233Z,52.9619140625
2022-09-06T01:43:10.684Z,52.8583984375
2022-09-06T01:44:12.101Z,53.3408203125
2022-09-06T01:45:06.218Z,53.1787109375
2022-09-06T01:46:06.204Z,53.01953125
2022-09-06T01:47:06.255Z,53.2353515625
2022-09-06T01:48:06.234Z,53.3271484375
2022-09-06T01:49:06.488Z,53.1318359375
2022-09-06T01:50:06.172Z,53.283203125
2022-09-06T01:51:06.192Z,53.41796875
2022-09-06T01:52:06.133Z,53.5546875
2022-09-06T01:53:06.043Z,53.943359375
2022-09-06T01:54:06.490Z,54.3916015625
2022-09-06T01:55:09.211Z,54.6552734375
2022-09-06T01:56:06.225Z,54.720703125
2022-09-06T01:57:06.139Z,54.685546875
2022-09-06T01:58:06.183Z,54.6513671875
2022-09-06T01:59:06.429Z,54.59765625
2022-09-06T02:00:06.225Z,54.7666015625
2022-09-06T02:01:06.137Z,54.939453125
2022-09-06T02:02:06.109Z,55.0302734375
2022-09-06T02:03:06.193Z,55.1220703125
2022-09-06T02:04:06.413Z,55.0322265625
2022-09-06T02:05:06.213Z,54.6474609375
2022-09-06T02:06:09.136Z,53.0908203125
2022-09-06T02:07:06.254Z,52.123046875
2022-09-06T02:08:06.221Z,51.326171875
2022-09-06T02:09:06.490Z,51.06640625
2022-09-06T02:10:06.241Z,50.93359375
2022-09-06T02:11:06.190Z,50.625
2022-09-06T02:12:06.074Z,49.4111328125
2022-09-06T02:13:06.192Z,49.2001953125
2022-09-06T02:14:06.442Z,49.068359375
2022-09-06T02:15:06.201Z,48.810546875
2022-09-06T02:16:06.174Z,48.4853515625
2022-09-06T02:17:09.262Z,48.349609375
2022-09-06T02:18:06.205Z,48.2265625
2022-09-06T02:19:08.223Z,48.236328125
2022-09-06T02:20:06.244Z,48.236328125
2022-09-06T02:21:06.158Z,48.2841796875
2022-09-06T02:22:06.230Z,48.2041015625
2022-09-06T02:23:06.052Z,48.1689453125
2022-09-06T02:24:06.047Z,48.2255859375
2022-09-06T02:25:06.483Z,48.2958984375
2022-09-06T02:26:06.239Z,48.263671875
2022-09-06T02:27:06.152Z,48.046875
2022-09-06T02:28:09.228Z,48.0146484375
2022-09-06T02:29:06.161Z,48.041015625
2022-09-06T02:30:06.518Z,47.9736328125
2022-09-06T02:31:06.335Z,48.169921875
2022-09-06T02:32:06.237Z,48.2646484375
2022-09-06T02:33:06.213Z,48.4970703125
2022-09-06T02:34:06.193Z,48.498046875
2022-09-06T02:35:06.483Z,48.40625
2022-09-06T02:36:06.620Z,48.236328125
2022-09-06T02:37:06.152Z,48.2607421875
2022-09-06T02:38:06.180Z,48.0078125
2022-09-06T02:39:09.168Z,47.9501953125
2022-09-06T02:40:06.684Z,47.8369140625
2022-09-06T02:41:06.119Z,47.802734375
2022-09-06T02:42:06.170Z,47.84765625
2022-09-06T02:43:06.214Z,47.7099609375
2022-09-06T02:44:06.158Z,47.65234375
2022-09-06T02:45:07.489Z,47.5830078125
2022-09-06T02:46:06.192Z,47.41015625
2022-09-06T02:47:06.240Z,47.1845703125
2022-09-06T02:48:06.189Z,47.1865234375
2022-09-06T02:49:06.409Z,47.4775390625
2022-09-06T02:50:12.110Z,47.2177734375
2022-09-06T02:51:06.412Z,47.0712890625
2022-09-06T02:52:06.065Z,47.154296875
2022-09-06T02:53:06.162Z,47.38671875
2022-09-06T02:54:06.155Z,47.2978515625
2022-09-06T02:55:06.484Z,47.3583984375
2022-09-06T02:56:06.055Z,47.6240234375
2022-09-06T02:57:06.112Z,47.166015625
2022-09-06T02:58:06.082Z,47.0966796875
2022-09-06T02:59:06.199Z,46.9697265625
2022-09-06T03:00:06.790Z,46.9345703125
2022-09-06T03:01:09.231Z,46.73828125
2022-09-06T03:02:06.268Z,46.78515625
2022-09-06T03:03:06.147Z,46.876953125
2022-09-06T03:04:06.241Z,46.93359375
2022-09-06T03:05:06.485Z,46.9130859375
2022-09-06T03:06:06.256Z,46.876953125
2022-09-06T03:07:06.051Z,46.9228515625
2022-09-06T03:08:06.155Z,47.001953125
2022-09-06T03:09:06.050Z,47.150390625
2022-09-06T03:10:06.481Z,47.3447265625
2022-09-06T03:11:06.252Z,47.322265625
2022-09-06T03:12:09.167Z,47.2421875
2022-09-06T03:13:06.265Z,47.2421875
2022-09-06T03:14:06.225Z,47.3447265625
2022-09-06T03:15:06.166Z,47.451171875
2022-09-06T03:16:06.411Z,47.3623046875
2022-09-06T03:17:06.267Z,47.384765625
2022-09-06T03:18:06.205Z,47.6162109375
2022-09-06T03:19:06.118Z,47.673828125
2022-09-06T03:20:06.639Z,47.6396484375
2022-09-06T03:21:06.236Z,47.9287109375
2022-09-06T03:22:06.206Z,47.9287109375
2022-09-06T03:23:09.248Z,48.01171875
2022-09-06T03:24:06.267Z,48.056640625
2022-09-06T03:25:06.449Z,48.2275390625
2022-09-06T03:26:06.146Z,48.2470703125
2022-09-06T03:27:06.127Z,48.24609375
2022-09-06T03:28:06.158Z,48.892578125
2022-09-06T03:29:06.198Z,48.5048828125
2022-09-06T03:30:06.037Z,48.1455078125
2022-09-06T03:31:06.566Z,48.265625
2022-09-06T03:32:06.222Z,48.0439453125
2022-09-06T03:33:06.198Z,48.9208984375
2022-09-06T03:34:11.097Z,50.0927734375
2022-09-06T03:35:06.286Z,50.7451171875
2022-09-06T03:36:06.402Z,51.3056640625
2022-09-06T03:37:06.208Z,50.69140625
2022-09-06T03:38:06.220Z,51.0302734375
2022-09-06T03:39:06.173Z,51.7705078125
2022-09-06T03:40:06.505Z,53.078125
2022-09-06T03:41:06.201Z,52.734375
2022-09-06T03:42:06.256Z,53.103515625
2022-09-06T03:43:06.158Z,52.978515625
2022-09-06T03:44:06.183Z,53.13671875
2022-09-06T03:45:12.121Z,52.720703125
2022-09-06T03:46:06.287Z,52.3984375
2022-09-06T03:47:06.198Z,52.09765625
2022-09-06T03:48:06.246Z,52.7080078125
2022-09-06T03:49:06.205Z,51.96875
2022-09-06T03:50:06.479Z,51.98828125
2022-09-06T03:51:06.412Z,52.0244140625
2022-09-06T03:52:06.148Z,51.955078125
2022-09-06T03:53:06.245Z,51.642578125
2022-09-06T03:54:06.240Z,51.494140625
2022-09-06T03:55:06.415Z,51.4541015625
2022-09-06T03:56:09.130Z,51.4345703125
2022-09-06T03:57:06.264Z,50.8583984375
2022-09-06T03:58:06.250Z,51.5966796875
2022-09-06T03:59:06.251Z,52.4140625
2022-09-06T04:00:06.190Z,52.1240234375
2022-09-06T04:01:06.448Z,51.41796875
2022-09-06T04:02:06.200Z,51.498046875
2022-09-06T04:03:06.060Z,51.533203125
2022-09-06T04:04:06.184Z,51.509765625
2022-09-06T04:05:06.201Z,51.4970703125
2022-09-06T04:06:06.492Z,51.40234375
2022-09-06T04:07:09.134Z,51.59765625
2022-09-06T04:08:07.673Z,51.1787109375
2022-09-06T04:09:06.175Z,51.109375
2022-09-06T04:10:06.490Z,51.31640625
2022-09-06T04:11:06.241Z,51.5947265625
2022-09-06T04:12:06.067Z,51.2939453125
2022-09-06T04:13:06.176Z,51.2099609375
2022-09-06T04:14:06.160Z,51.322265625
2022-09-06T04:15:06.483Z,51.58984375
2022-09-06T04:16:06.257Z,51.69921875
2022-09-06T04:17:06.149Z,51.8681640625
2022-09-06T04:18:09.407Z,51.955078125
2022-09-06T04:19:06.208Z,52.19140625
2022-09-06T04:20:06.482Z,52.33984375
2022-09-06T04:21:06.422Z,52.2646484375
2022-09-06T04:22:06.184Z,52.3447265625
2022-09-06T04:23:06.042Z,52.5361328125
2022-09-06T04:24:06.208Z,52.22265625
2022-09-06T04:25:06.489Z,52.552734375
2022-09-06T04:26:06.156Z,52.50390625
2022-09-06T04:27:06.156Z,52.662109375
2022-09-06T04:28:06.108Z,52.806640625
2022-09-06T04:29:09.157Z,52.94140625
2022-09-06T04:30:06.439Z,53.0078125
2022-09-06T04:31:06.220Z,53.02734375
2022-09-06T04:32:06.138Z,52.8408203125
2022-09-06T04:33:06.049Z,52.91796875
2022-09-06T04:34:06.092Z,53.0615234375
2022-09-06T04:35:06.413Z,53.138671875
2022-09-06T04:36:06.481Z,53.2734375
2022-09-06T04:37:06.164Z,53.3173828125
2022-09-06T04:38:06.131Z,53.3486328125
2022-09-06T04:39:06.247Z,53.416015625
2022-09-06T04:40:12.090Z,53.5732421875
2022-09-06T04:41:06.264Z,53.580078125
2022-09-06T04:42:06.295Z,53.6005859375
2022-09-06T04:43:06.230Z,53.662109375
2022-09-06T04:44:06.067Z,53.9306640625
2022-09-06T04:45:06.481Z,54.1455078125
2022-09-06T04:46:06.232Z,54.244140625
2022-09-06T04:47:09.360Z,54.54296875
2022-09-06T04:48:06.187Z,55.2978515625
2022-09-06T04:49:06.272Z,55.283203125
2022-09-06T04:50:09.066Z,55.236328125
2022-09-06T04:51:12.112Z,55.6123046875
2022-09-06T04:52:06.128Z,55.607421875
2022-09-06T04:53:06.143Z,55.4580078125
2022-09-06T04:54:06.244Z,55.5478515625
2022-09-06T04:55:06.523Z,56.0244140625
2022-09-06T04:56:06.229Z,56.3203125
2022-09-06T04:57:06.145Z,56.228515625
2022-09-06T04:58:06.204Z,56.2607421875
2022-09-06T04:59:06.200Z,56.326171875
2022-09-06T05:00:06.174Z,56.53515625
2022-09-06T05:01:06.446Z,56.5771484375
2022-09-06T05:02:09.294Z,56.552734375
2022-09-06T05:03:06.270Z,56.82421875
2022-09-06T05:04:06.270Z,57.0185546875
2022-09-06T05:05:06.416Z,56.9501953125
2022-09-06T05:06:06.423Z,57.083984375
2022-09-06T05:07:09.022Z,56.923828125
2022-09-06T05:08:06.075Z,57.083984375
2022-09-06T05:09:06.169Z,57.1162109375
2022-09-06T05:10:06.451Z,57.150390625
2022-09-06T05:11:06.264Z,57.2197265625
2022-09-06T05:12:06.177Z,57.2646484375
2022-09-06T05:13:09.243Z,57.162109375
2022-09-06T05:14:06.192Z,57.107421875
2022-09-06T05:15:06.128Z,57.1005859375
2022-09-06T05:16:06.617Z,56.9287109375
2022-09-06T05:17:06.126Z,56.908203125
2022-09-06T05:18:06.178Z,57.13671875
2022-09-06T05:19:06.150Z,57.4619140625
2022-09-06T05:20:06.038Z,56.853515625
2022-09-06T05:21:06.480Z,56.982421875
2022-09-06T05:22:06.144Z,56.572265625
2022-09-06T05:23:06.191Z,56.6640625
2022-09-06T05:24:09.202Z,56.072265625
2022-09-06T05:25:06.117Z,56.2216796875
2022-09-06T05:26:06.586Z,56.2783203125
2022-09-06T05:27:06.218Z,56.3037109375
2022-09-06T05:28:06.159Z,56.404296875
2022-09-06T05:29:06.244Z,56.7451171875
2022-09-06T05:30:06.203Z,56.732421875
2022-09-06T05:31:06.415Z,56.7568359375
2022-09-06T05:32:06.311Z,56.595703125
2022-09-06T05:33:06.278Z,56.57421875
2022-09-06T05:34:06.264Z,56.482421875
2022-09-06T05:35:09.081Z,56.416015625
2022-09-06T05:36:06.418Z,56.3955078125
2022-09-06T05:37:06.122Z,56.5234375
2022-09-06T05:38:06.179Z,56.376953125
2022-09-06T05:39:06.214Z,56.2646484375
2022-09-06T05:40:06.287Z,56.15234375
2022-09-06T05:41:06.495Z,55.763671875
2022-09-06T05:42:06.061Z,55.890625
2022-09-06T05:43:06.158Z,55.7666015625
2022-09-06T05:44:06.229Z,55.734375
2022-09-06T05:45:06.267Z,55.87109375
2022-09-06T05:46:12.188Z,56.0302734375
2022-09-06T05:47:06.258Z,56.29296875
2022-09-06T05:48:06.155Z,56.2802734375
2022-09-06T05:49:06.049Z,56.13671875
2022-09-06T05:50:06.266Z,56.2158203125
2022-09-06T05:51:06.491Z,56.20703125
2022-09-06T05:52:06.160Z,56.10546875
2022-09-06T05:53:06.197Z,56.0029296875
2022-09-06T05:54:06.227Z,55.9052734375
2022-09-06T05:55:06.262Z,55.8486328125
2022-09-06T05:56:06.597Z,55.6357421875
2022-09-06T05:57:09.208Z,55.40234375
2022-09-06T05:58:06.173Z,55.2099609375
2022-09-06T05:59:06.148Z,55.1904296875
2022-09-06T06:00:06.088Z,55.2412109375
2022-09-06T06:01:06.591Z,55.087890625
2022-09-06T06:02:07.493Z,54.7880859375
2022-09-06T06:03:06.066Z,52.4267578125
2022-09-06T06:04:06.065Z,47.42578125
2022-09-06T06:05:06.200Z,42.4755859375
2022-09-06T06:06:06.418Z,38.068359375
2022-09-06T06:07:06.172Z,36.5087890625
2022-09-06T06:08:09.218Z,32.076171875
2022-09-06T06:09:06.232Z,32.3154296875
2022-09-06T06:10:06.244Z,33.7939453125
2022-09-06T06:11:06.554Z,32.5693359375
2022-09-06T06:12:06.127Z,31.1328125
2022-09-06T06:13:06.171Z,27.087890625
2022-09-06T06:14:06.172Z,25.126953125
2022-09-06T06:15:06.063Z,23.48828125
2022-09-06T06:16:06.527Z,22.0791015625
2022-09-06T06:17:06.253Z,21.3515625
2022-09-06T06:18:06.258Z,21.8857421875
2022-09-06T06:19:09.037Z,23.40625
2022-09-06T06:20:06.202Z,24.8095703125
2022-09-06T06:21:06.491Z,25.91015625
2022-09-06T06:22:06.221Z,27.8466796875
2022-09-06T06:23:06.159Z,29.8701171875
2022-09-06T06:24:06.161Z,31.6494140625
2022-09-06T06:25:06.168Z,33.2099609375
2022-09-06T06:26:06.487Z,34.130859375
2022-09-06T06:27:06.430Z,34.001953125
2022-09-06T06:28:06.218Z,31.548828125
2022-09-06T06:29:06.153Z,29.5478515625
2022-09-06T06:30:09.142Z,27.9365234375
2022-09-06T06:31:06.419Z,26.0009765625
2022-09-06T06:32:06.204Z,23.4130859375
2022-09-06T06:33:06.238Z,21.59375
2022-09-06T06:34:06.165Z,21.404296875
2022-09-06T06:35:06.168Z,24.46484375
2022-09-06T06:36:06.413Z,27.162109375
2022-09-06T06:37:06.059Z,29.2001953125
2022-09-06T06:38:06.146Z,30.36328125
2022-09-06T06:39:06.157Z,33.4833984375
2022-09-06T06:40:06.321Z,35.1787109375
2022-09-06T06:41:09.603Z,35.0390625
2022-09-06T06:42:06.134Z,35.34375
2022-09-06T06:43:06.193Z,35.9892578125
2022-09-06T06:44:06.189Z,35.5908203125
2022-09-06T06:45:06.159Z,34.8759765625
2022-09-06T06:46:06.565Z,34.15625
2022-09-06T06:47:06.170Z,34.3701171875
2022-09-06T06:48:06.121Z,34.859375
2022-09-06T06:49:06.063Z,35.7236328125
2022-09-06T06:50:06.123Z,36.9541015625
2022-09-06T06:51:06.523Z,37.66015625
2022-09-06T06:52:09.068Z,39.59375
2022-09-06T06:53:06.259Z,40.427734375
2022-09-06T06:54:06.169Z,40.41015625
2022-09-06T06:55:06.146Z,41.103515625
2022-09-06T06:56:06.523Z,42.09375
2022-09-06T06:57:06.254Z,42.7890625
2022-09-06T06:58:06.162Z,43.0419921875
2022-09-06T06:59:06.180Z,43.8837890625
2022-09-06T07:00:06.247Z,44.5166015625
2022-09-06T07:01:06.651Z,44.927734375
2022-09-06T07:02:06.355Z,44.8564453125
2022-09-06T07:03:09.137Z,44.2841796875
2022-09-06T07:04:06.108Z,43.685546875
2022-09-06T07:07:30.996Z,42.384765625
2022-09-06T07:08:15.267Z,40.7880859375
2022-09-06T07:09:15.376Z,38.154296875
2022-09-06T07:10:35.334Z,34.7646484375
2022-09-06T07:11:15.722Z,31.82421875
2022-09-06T07:12:18.268Z,29.896484375
2022-09-06T07:13:15.286Z,28.87109375
2022-09-06T07:14:15.295Z,27.74609375
2022-09-06T07:15:15.201Z,27.15234375
2022-09-06T07:16:15.673Z,28.3173828125
2022-09-06T07:17:15.306Z,29.306640625
2022-09-06T07:18:15.070Z,29.47265625
2022-09-06T07:22:29.463Z,21.6630859375
2022-09-06T07:25:05.913Z,20.6142578125
2022-09-06T07:26:06.287Z,21.431640625
2022-09-06T07:28:43.021Z,28.9560546875
2022-09-06T07:29:43.077Z,30.8232421875
2022-09-06T07:30:43.312Z,32.5908203125
2022-09-06T07:32:10.881Z,34.208984375
2022-09-06T07:32:43.041Z,35.4130859375
2022-09-06T07:33:46.115Z,36.501953125
2022-09-06T07:34:43.135Z,37.291015625
2022-09-06T07:35:43.382Z,37.7373046875
2022-09-06T07:36:43.312Z,37.8427734375
2022-09-06T07:37:43.141Z,37.9033203125
2022-09-06T07:38:43.045Z,37.9501953125
2022-09-06T07:39:43.149Z,37.791015625
2022-09-06T07:40:43.411Z,37.8505859375
2022-09-06T07:41:43.111Z,38.0322265625
2022-09-06T07:42:43.110Z,38.3505859375
2022-09-06T07:43:43.155Z,39.01171875
2022-09-06T07:44:45.989Z,39.30859375
2022-09-06T07:45:43.306Z,40.09375
2022-09-06T07:46:43.249Z,40.4501953125
2022-09-06T07:47:58.776Z,40.2431640625
2022-09-06T07:48:43.134Z,40.3349609375
2022-09-06T07:50:47.101Z,40.68359375
2022-09-06T07:51:50.726Z,40.7392578125
2022-09-06T07:54:29.755Z,40.8095703125
2022-09-06T07:55:12.696Z,40.9892578125
2022-09-06T07:56:13.077Z,41.478515625
2022-09-06T07:57:12.807Z,41.875
2022-09-06T07:58:12.761Z,42.373046875
2022-09-06T07:59:15.787Z,42.9658203125
2022-09-06T08:00:12.858Z,43.4365234375
2022-09-06T08:01:13.070Z,44.228515625
2022-09-06T08:02:12.855Z,44.65234375
2022-09-06T08:03:15.629Z,44.94140625
2022-09-06T08:04:12.730Z,44.83203125
2022-09-06T08:10:03.607Z,44.4931640625
2022-09-06T08:11:03.976Z,44.115234375
2022-09-06T08:12:03.799Z,43.36328125
2022-09-06T08:13:03.725Z,43.29296875
2022-09-06T08:14:03.761Z,43.849609375
2022-09-06T08:15:06.666Z,44.1494140625
2022-09-06T08:16:03.974Z,44.26171875
2022-09-06T08:17:03.800Z,44.4013671875
2022-09-06T08:18:03.746Z,44.3681640625
2022-09-06T08:19:03.684Z,44.3701171875
2022-09-06T08:20:06.242Z,44.09765625
2022-09-06T08:21:03.914Z,43.7578125
2022-09-06T08:22:03.897Z,43.7666015625
2022-09-06T08:23:03.715Z,43.9716796875
2022-09-06T08:24:03.557Z,43.986328125
2022-09-06T08:25:03.629Z,43.927734375
2022-09-06T08:26:09.554Z,43.861328125
2022-09-06T08:27:03.720Z,43.9560546875
2022-09-06T08:28:03.602Z,43.6357421875
2022-09-06T08:29:03.679Z,43.6865234375
2022-09-06T08:30:03.730Z,43.572265625
2022-09-06T08:31:04.136Z,43.6474609375
2022-09-06T08:32:03.687Z,43.29296875
2022-09-06T08:33:03.636Z,43.03125
2022-09-06T08:34:03.577Z,42.69921875
2022-09-06T08:35:03.509Z,42.564453125
2022-09-06T08:36:03.964Z,42.5439453125
2022-09-06T08:37:09.672Z,42.6962890625
2022-09-06T08:38:03.722Z,42.59375
2022-09-06T08:39:03.647Z,42.52734375
2022-09-06T08:40:03.704Z,42.5302734375
2022-09-06T08:41:03.966Z,42.4345703125
2022-09-06T08:42:03.655Z,42.17578125
2022-09-06T08:43:03.654Z,42.041015625
2022-09-06T08:45:40.772Z,41.0322265625
2022-09-06T08:46:40.387Z,40.8740234375
2022-09-06T08:47:40.465Z,41.4130859375
2022-09-06T08:48:40.498Z,41.5146484375
2022-09-06T08:49:40.452Z,41.5361328125
2022-09-06T08:50:46.472Z,41.7548828125
2022-09-06T08:51:40.682Z,41.513671875
2022-09-06T08:52:49.375Z,41.064453125
2022-09-06T08:53:41.321Z,41.0546875
2022-09-06T08:54:40.554Z,41.10546875
2022-09-06T08:55:40.685Z,41.02734375
2022-09-06T08:56:40.329Z,40.8330078125
2022-09-06T08:57:40.616Z,40.48046875
2022-09-06T08:58:40.534Z,40.6650390625
2022-09-06T08:59:40.427Z,40.896484375
2022-09-06T09:00:40.702Z,40.9013671875
2022-09-06T09:01:43.389Z,40.44140625
2022-09-06T09:02:40.392Z,40.31640625
2022-09-06T09:03:40.454Z,40.052734375
2022-09-06T09:04:40.510Z,39.892578125
2022-09-06T09:05:40.679Z,39.6669921875
2022-09-06T09:06:40.691Z,39.462890625
2022-09-06T09:07:40.470Z,39.2431640625
2022-09-06T09:08:40.462Z,39.2939453125
2022-09-06T09:09:40.448Z,39.11328125
2022-09-06T09:10:40.749Z,39.2119140625
2022-09-06T09:11:40.532Z,38.9736328125
2022-09-06T09:12:43.526Z,38.0126953125
2022-09-06T09:13:40.514Z,37.3388671875
2022-09-06T09:14:40.482Z,37.013671875
2022-09-06T09:15:40.812Z,37.0751953125
2022-09-06T09:16:40.593Z,37.048828125
2022-09-06T09:17:40.501Z,37.22265625
2022-09-06T09:18:40.429Z,37.1748046875
2022-09-06T09:19:40.431Z,37.212890625
2022-09-06T09:20:40.694Z,37.048828125
2022-09-06T09:21:40.542Z,37.1533203125
2022-09-06T09:22:40.417Z,37.3740234375
2022-09-06T09:23:43.468Z,37.7607421875
2022-09-06T09:24:40.511Z,37.3408203125
2022-09-06T09:25:40.876Z,37.12109375
2022-09-06T09:26:40.520Z,36.859375
2022-09-06T09:27:40.404Z,36.513671875
2022-09-06T09:28:40.419Z,35.9140625
2022-09-06T09:29:41.077Z,35.5322265625
2022-09-06T09:30:48.531Z,35.291015625
2022-09-06T09:31:40.567Z,35.826171875
2022-09-06T09:32:40.499Z,35.943359375
2022-09-06T09:33:40.310Z,34.98828125
2022-09-06T09:34:43.354Z,34.7236328125
2022-09-06T09:35:40.716Z,34.2978515625
2022-09-06T09:36:40.702Z,33.9033203125
2022-09-06T09:37:48.723Z,33.8994140625
2022-09-06T09:38:40.467Z,33.568359375
2022-09-06T09:39:40.540Z,33.4228515625
2022-09-06T09:40:40.670Z,33.2294921875
2022-09-06T09:41:40.342Z,33.0830078125
2022-09-06T09:42:40.465Z,32.5830078125
2022-09-06T09:43:40.532Z,32.615234375
2022-09-06T09:44:40.490Z,32.611328125
2022-09-06T09:45:46.424Z,32.728515625
2022-09-06T09:46:40.511Z,32.4541015625
2022-09-06T09:47:40.458Z,32.5224609375
2022-09-06T09:48:40.463Z,32.5107421875
2022-09-06T09:49:40.453Z,32.3701171875
2022-09-06T09:50:40.678Z,32.3720703125
2022-09-06T09:51:40.679Z,32.2890625
2022-09-06T09:52:40.446Z,32.349609375
2022-09-06T09:53:40.512Z,32.19140625
2022-09-06T09:54:40.385Z,31.7841796875
2022-09-06T09:55:40.818Z,31.7265625
2022-09-06T09:56:43.434Z,31.599609375
2022-09-06T09:57:40.517Z,31.3935546875
2022-09-06T09:58:40.508Z,30.9892578125
2022-09-06T09:59:40.416Z,30.8505859375
2022-09-06T10:00:40.801Z,30.78125
2022-09-06T10:01:40.538Z,30.634765625
2022-09-06T10:02:40.324Z,30.2626953125
2022-09-06T10:05:17.109Z,30.271484375
2022-09-06T10:07:54.426Z,30.046875
2022-09-06T10:08:54.502Z,29.9072265625
2022-09-06T10:09:54.561Z,29.990234375
2022-09-06T10:10:54.738Z,29.7255859375
2022-09-06T10:11:54.465Z,29.142578125
2022-09-06T10:12:57.449Z,29.05078125
2022-09-06T10:13:54.528Z,29.109375
2022-09-06T10:14:54.418Z,29.0146484375
2022-09-06T10:15:54.815Z,28.978515625
2022-09-06T10:16:54.445Z,28.7802734375
2022-09-06T10:17:54.447Z,28.6552734375
2022-09-06T10:18:54.497Z,28.306640625
2022-09-06T10:19:54.458Z,28.02734375
2022-09-06T10:20:54.723Z,28.0859375
2022-09-06T10:21:54.737Z,27.86328125
2022-09-06T10:22:54.544Z,27.67578125
2022-09-06T10:24:26.053Z,27.7548828125
2022-09-06T10:24:54.480Z,27.765625
2022-09-06T10:25:54.788Z,27.927734375
2022-09-06T10:26:54.427Z,27.873046875
2022-09-06T10:28:10.371Z,27.83203125
2022-09-06T10:28:54.444Z,27.2978515625
2022-09-06T10:29:54.445Z,26.9462890625
2022-09-06T10:30:54.817Z,26.9072265625
2022-09-06T10:31:54.539Z,26.9306640625
2022-09-06T10:32:54.349Z,26.970703125
2022-09-06T10:33:54.538Z,27.07421875
2022-09-06T10:34:57.506Z,27.4921875
2022-09-06T10:35:54.723Z,27.478515625
2022-09-06T10:36:54.901Z,27.630859375
2022-09-06T10:37:54.448Z,27.6572265625
2022-09-06T10:38:54.449Z,27.396484375
2022-09-06T10:39:54.533Z,27.18359375
2022-09-06T10:40:54.721Z,26.935546875
2022-09-06T10:41:54.459Z,26.9501953125
2022-09-06T10:42:54.558Z,26.7978515625
2022-09-06T10:43:54.550Z,26.3798828125
2022-09-06T10:44:54.574Z,25.759765625
2022-09-06T10:46:00.453Z,25.4580078125
2022-09-06T10:46:54.596Z,25.8115234375
2022-09-06T10:47:54.462Z,25.8583984375
2022-09-06T10:48:54.447Z,26.1005859375
2022-09-06T10:49:54.444Z,26.2255859375